sensor_id;sensor_type;location;lat;lon;timestamp;P1;durP1;ratioP1;P2;durP2;ratioP2
45007;SDS011;30743;52.008;5.644;2023-02-10T00:01:21;43.28;;;16.77;;
45007;SDS011;30743;52.008;5.644;2023-02-10T00:03:48;67.38;;;20.42;;
45007;SDS011;30743;52.008;5.644;2023-02-10T00:06:15;55.15;;;15.60;;
45007;SDS011;30743;52.008;5.644;2023-02-10T00:08:45;39.58;;;14.45;;
45007;SDS011;30743;52.008;5.644;2023-02-10T00:11:12;65.90;;;14.68;;
45007;SDS011;30743;52.008;5.644;2023-02-10T00:13:38;56.47;;;15.77;;
45007;SDS011;30743;52.008;5.644;2023-02-10T00:16:04;67.22;;;15.38;;
45007;SDS011;30743;52.008;5.644;2023-02-10T00:18:32;55.40;;;14.48;;
45007;SDS011;30743;52.008;5.644;2023-02-10T00:21:05;55.08;;;14.10;;
45007;SDS011;30743;52.008;5.644;2023-02-10T00:23:31;56.55;;;14.77;;
45007;SDS011;30743;52.008;5.644;2023-02-10T00:25:57;55.05;;;20.25;;
45007;SDS011;30743;52.008;5.644;2023-02-10T00:28:22;39.63;;;15.63;;
45007;SDS011;30743;52.008;5.644;2023-02-10T00:30:48;58.75;;;14.93;;
45007;SDS011;30743;52.008;5.644;2023-02-10T00:33:13;140.27;;;18.02;;
45007;SDS011;30743;52.008;5.644;2023-02-10T00:35:39;163.77;;;18.25;;
45007;SDS011;30743;52.008;5.644;2023-02-10T00:38:04;185.80;;;21.33;;
45007;SDS011;30743;52.008;5.644;2023-02-10T00:40:30;126.65;;;16.23;;
45007;SDS011;30743;52.008;5.644;2023-02-10T00:42:55;119.45;;;17.83;;
45007;SDS011;30743;52.008;5.644;2023-02-10T00:45:21;205.98;;;22.05;;
45007;SDS011;30743;52.008;5.644;2023-02-10T00:47:46;176.30;;;21.67;;
45007;SDS011;30743;52.008;5.644;2023-02-10T00:50:14;123.07;;;17.02;;
45007;SDS011;30743;52.008;5.644;2023-02-10T00:52:39;85.75;;;16.13;;
45007;SDS011;30743;52.008;5.644;2023-02-10T00:55:05;176.60;;;19.38;;
45007;SDS011;30743;52.008;5.644;2023-02-10T00:57:30;57.85;;;14.60;;
45007;SDS011;30743;52.008;5.644;2023-02-10T00:59:56;94.03;;;16.67;;
45007;SDS011;30743;52.008;5.644;2023-02-10T01:02:21;125.25;;;18.50;;
45007;SDS011;30743;52.008;5.644;2023-02-10T01:04:47;82.47;;;16.60;;
45007;SDS011;30743;52.008;5.644;2023-02-10T01:07:12;90.85;;;16.10;;
45007;SDS011;30743;52.008;5.644;2023-02-10T01:09:38;97.65;;;16.55;;
45007;SDS011;30743;52.008;5.644;2023-02-10T01:12:04;117.13;;;17.92;;
45007;SDS011;30743;52.008;5.644;2023-02-10T01:14:31;87.57;;;16.33;;
45007;SDS011;30743;52.008;5.644;2023-02-10T01:16:57;108.97;;;16.80;;
45007;SDS011;30743;52.008;5.644;2023-02-10T01:19:23;119.65;;;16.92;;
45007;SDS011;30743;52.008;5.644;2023-02-10T01:21:48;93.15;;;17.00;;
45007;SDS011;30743;52.008;5.644;2023-02-10T01:24:14;148.00;;;19.10;;
45007;SDS011;30743;52.008;5.644;2023-02-10T01:26:39;135.45;;;18.70;;
45007;SDS011;30743;52.008;5.644;2023-02-10T01:29:05;156.00;;;19.98;;
45007;SDS011;30743;52.008;5.644;2023-02-10T01:31:30;167.90;;;21.00;;
45007;SDS011;30743;52.008;5.644;2023-02-10T01:33:56;111.32;;;18.95;;
45007;SDS011;30743;52.008;5.644;2023-02-10T01:36:23;90.45;;;18.33;;
45007;SDS011;30743;52.008;5.644;2023-02-10T01:38:49;71.03;;;17.00;;
45007;SDS011;30743;52.008;5.644;2023-02-10T01:41:16;68.70;;;16.67;;
45007;SDS011;30743;52.008;5.644;2023-02-10T01:44:00;82.97;;;16.67;;
45007;SDS011;30743;52.008;5.644;2023-02-10T01:46:32;71.75;;;14.95;;
45007;SDS011;30743;52.008;5.644;2023-02-10T01:49:04;64.65;;;15.50;;
45007;SDS011;30743;52.008;5.644;2023-02-10T01:51:38;120.45;;;18.35;;
45007;SDS011;30743;52.008;5.644;2023-02-10T01:54:12;175.20;;;20.38;;
45007;SDS011;30743;52.008;5.644;2023-02-10T01:56:41;126.68;;;20.73;;
45007;SDS011;30743;52.008;5.644;2023-02-10T01:59:07;148.02;;;18.52;;
45007;SDS011;30743;52.008;5.644;2023-02-10T02:01:33;75.05;;;15.48;;
45007;SDS011;30743;52.008;5.644;2023-02-10T02:03:59;67.35;;;15.10;;
45007;SDS011;30743;52.008;5.644;2023-02-10T02:06:26;76.05;;;16.48;;
45007;SDS011;30743;52.008;5.644;2023-02-10T02:08:52;77.28;;;15.70;;
45007;SDS011;30743;52.008;5.644;2023-02-10T02:25:07;113.38;;;17.33;;
45007;SDS011;30743;52.008;5.644;2023-02-10T02:27:55;62.83;;;14.98;;
45007;SDS011;30743;52.008;5.644;2023-02-10T02:33:31;54.97;;;14.90;;
45007;SDS011;30743;52.008;5.644;2023-02-10T02:36:07;28.00;;;14.07;;
45007;SDS011;30743;52.008;5.644;2023-02-10T02:38:38;49.40;;;15.25;;
45007;SDS011;30743;52.008;5.644;2023-02-10T02:41:04;50.08;;;15.93;;
45007;SDS011;30743;52.008;5.644;2023-02-10T02:43:30;36.00;;;15.35;;
45007;SDS011;30743;52.008;5.644;2023-02-10T02:45:58;79.65;;;16.88;;
45007;SDS011;30743;52.008;5.644;2023-02-10T02:48:56;65.60;;;16.38;;
45007;SDS011;30743;52.008;5.644;2023-02-10T02:51:34;36.92;;;14.63;;
45007;SDS011;30743;52.008;5.644;2023-02-10T02:54:16;38.58;;;13.77;;
45007;SDS011;30743;52.008;5.644;2023-02-10T02:59:39;35.97;;;13.70;;
45007;SDS011;30743;52.008;5.644;2023-02-10T03:02:17;43.90;;;13.57;;
45007;SDS011;30743;52.008;5.644;2023-02-10T03:04:44;37.05;;;13.68;;
45007;SDS011;30743;52.008;5.644;2023-02-10T03:07:11;53.67;;;14.05;;
45007;SDS011;30743;52.008;5.644;2023-02-10T03:09:36;85.53;;;17.40;;
45007;SDS011;30743;52.008;5.644;2023-02-10T03:12:02;75.72;;;15.07;;
45007;SDS011;30743;52.008;5.644;2023-02-10T03:14:28;87.65;;;16.35;;
45007;SDS011;30743;52.008;5.644;2023-02-10T03:16:53;103.32;;;17.13;;
45007;SDS011;30743;52.008;5.644;2023-02-10T03:19:19;50.28;;;16.25;;
45007;SDS011;30743;52.008;5.644;2023-02-10T03:21:44;93.13;;;16.23;;
45007;SDS011;30743;52.008;5.644;2023-02-10T03:24:10;121.78;;;17.15;;
45007;SDS011;30743;52.008;5.644;2023-02-10T03:26:36;120.78;;;17.48;;
45007;SDS011;30743;52.008;5.644;2023-02-10T03:29:02;71.97;;;15.57;;
45007;SDS011;30743;52.008;5.644;2023-02-10T03:31:30;97.78;;;17.27;;
45007;SDS011;30743;52.008;5.644;2023-02-10T03:33:55;121.28;;;20.27;;
45007;SDS011;30743;52.008;5.644;2023-02-10T03:36:21;117.63;;;16.65;;
45007;SDS011;30743;52.008;5.644;2023-02-10T03:38:47;109.57;;;17.25;;
45007;SDS011;30743;52.008;5.644;2023-02-10T03:41:12;96.65;;;17.55;;
45007;SDS011;30743;52.008;5.644;2023-02-10T03:43:38;66.82;;;15.05;;
45007;SDS011;30743;52.008;5.644;2023-02-10T03:46:04;65.75;;;15.05;;
45007;SDS011;30743;52.008;5.644;2023-02-10T03:48:30;115.15;;;16.88;;
45007;SDS011;30743;52.008;5.644;2023-02-10T03:50:57;97.38;;;17.58;;
45007;SDS011;30743;52.008;5.644;2023-02-10T03:53:26;201.90;;;21.00;;
45007;SDS011;30743;52.008;5.644;2023-02-10T03:55:53;187.85;;;21.52;;
45007;SDS011;30743;52.008;5.644;2023-02-10T03:58:18;154.45;;;19.85;;
45007;SDS011;30743;52.008;5.644;2023-02-10T04:00:44;184.10;;;20.55;;
45007;SDS011;30743;52.008;5.644;2023-02-10T04:03:10;93.85;;;16.55;;
45007;SDS011;30743;52.008;5.644;2023-02-10T04:05:35;167.43;;;19.83;;
45007;SDS011;30743;52.008;5.644;2023-02-10T04:08:01;73.60;;;17.35;;
45007;SDS011;30743;52.008;5.644;2023-02-10T04:10:26;214.18;;;24.92;;
45007;SDS011;30743;52.008;5.644;2023-02-10T04:12:52;101.90;;;18.98;;
45007;SDS011;30743;52.008;5.644;2023-02-10T04:15:18;108.85;;;18.27;;
45007;SDS011;30743;52.008;5.644;2023-02-10T04:17:44;122.32;;;20.50;;
45007;SDS011;30743;52.008;5.644;2023-02-10T04:20:10;198.93;;;24.35;;
45007;SDS011;30743;52.008;5.644;2023-02-10T04:22:36;167.05;;;22.45;;
45007;SDS011;30743;52.008;5.644;2023-02-10T04:25:02;126.35;;;19.13;;
45007;SDS011;30743;52.008;5.644;2023-02-10T04:27:28;79.78;;;17.60;;
45007;SDS011;30743;52.008;5.644;2023-02-10T04:29:53;99.63;;;19.17;;
45007;SDS011;30743;52.008;5.644;2023-02-10T04:32:19;126.70;;;20.75;;
45007;SDS011;30743;52.008;5.644;2023-02-10T04:34:44;89.47;;;18.45;;
45007;SDS011;30743;52.008;5.644;2023-02-10T04:37:10;81.95;;;18.85;;
45007;SDS011;30743;52.008;5.644;2023-02-10T04:39:35;129.23;;;21.33;;
45007;SDS011;30743;52.008;5.644;2023-02-10T04:42:01;91.75;;;19.92;;
45007;SDS011;30743;52.008;5.644;2023-02-10T04:44:26;57.33;;;18.05;;
45007;SDS011;30743;52.008;5.644;2023-02-10T04:46:52;42.05;;;17.15;;
45007;SDS011;30743;52.008;5.644;2023-02-10T04:49:17;91.40;;;22.38;;
45007;SDS011;30743;52.008;5.644;2023-02-10T04:51:43;28.15;;;16.52;;
45007;SDS011;30743;52.008;5.644;2023-02-10T04:54:09;42.67;;;22.92;;
45007;SDS011;30743;52.008;5.644;2023-02-10T04:56:34;40.13;;;22.75;;
45007;SDS011;30743;52.008;5.644;2023-02-10T04:59:00;36.22;;;19.10;;
45007;SDS011;30743;52.008;5.644;2023-02-10T05:01:25;36.58;;;20.27;;
45007;SDS011;30743;52.008;5.644;2023-02-10T05:03:51;28.58;;;15.95;;
45007;SDS011;30743;52.008;5.644;2023-02-10T05:06:16;23.88;;;14.57;;
45007;SDS011;30743;52.008;5.644;2023-02-10T05:08:42;28.67;;;14.82;;
45007;SDS011;30743;52.008;5.644;2023-02-10T05:11:08;23.08;;;14.63;;
45007;SDS011;30743;52.008;5.644;2023-02-10T05:13:35;26.13;;;14.35;;
45007;SDS011;30743;52.008;5.644;2023-02-10T05:16:01;26.58;;;15.15;;
45007;SDS011;30743;52.008;5.644;2023-02-10T05:18:28;32.58;;;15.57;;
45007;SDS011;30743;52.008;5.644;2023-02-10T05:20:54;28.88;;;14.68;;
45007;SDS011;30743;52.008;5.644;2023-02-10T05:23:20;28.05;;;13.85;;
45007;SDS011;30743;52.008;5.644;2023-02-10T05:25:46;26.60;;;14.93;;
45007;SDS011;30743;52.008;5.644;2023-02-10T05:28:12;25.33;;;16.58;;
45007;SDS011;30743;52.008;5.644;2023-02-10T05:30:37;26.65;;;16.70;;
45007;SDS011;30743;52.008;5.644;2023-02-10T05:33:03;28.33;;;16.42;;
45007;SDS011;30743;52.008;5.644;2023-02-10T05:35:28;23.67;;;15.15;;
45007;SDS011;30743;52.008;5.644;2023-02-10T05:37:54;31.10;;;17.45;;
45007;SDS011;30743;52.008;5.644;2023-02-10T05:40:20;26.08;;;15.52;;
45007;SDS011;30743;52.008;5.644;2023-02-10T05:42:45;27.30;;;15.68;;
45007;SDS011;30743;52.008;5.644;2023-02-10T05:45:11;26.13;;;16.00;;
45007;SDS011;30743;52.008;5.644;2023-02-10T05:47:36;26.70;;;16.13;;
45007;SDS011;30743;52.008;5.644;2023-02-10T05:50:02;26.98;;;16.63;;
45007;SDS011;30743;52.008;5.644;2023-02-10T05:52:27;55.80;;;17.42;;
45007;SDS011;30743;52.008;5.644;2023-02-10T05:54:53;25.65;;;16.17;;
45007;SDS011;30743;52.008;5.644;2023-02-10T05:57:18;28.58;;;16.58;;
45007;SDS011;30743;52.008;5.644;2023-02-10T05:59:44;27.73;;;16.35;;
45007;SDS011;30743;52.008;5.644;2023-02-10T06:02:09;30.50;;;17.45;;
45007;SDS011;30743;52.008;5.644;2023-02-10T06:04:35;72.15;;;21.38;;
45007;SDS011;30743;52.008;5.644;2023-02-10T06:07:00;152.10;;;23.48;;
45007;SDS011;30743;52.008;5.644;2023-02-10T06:09:26;94.28;;;20.50;;
45007;SDS011;30743;52.008;5.644;2023-02-10T06:11:52;125.10;;;22.52;;
45007;SDS011;30743;52.008;5.644;2023-02-10T06:14:18;111.55;;;22.80;;
45007;SDS011;30743;52.008;5.644;2023-02-10T06:16:44;84.80;;;21.80;;
45007;SDS011;30743;52.008;5.644;2023-02-10T06:19:10;164.85;;;26.73;;
45007;SDS011;30743;52.008;5.644;2023-02-10T06:21:35;105.28;;;23.05;;
45007;SDS011;30743;52.008;5.644;2023-02-10T06:24:01;144.43;;;25.30;;
45007;SDS011;30743;52.008;5.644;2023-02-10T06:26:26;190.82;;;29.10;;
45007;SDS011;30743;52.008;5.644;2023-02-10T06:28:52;151.63;;;26.13;;
45007;SDS011;30743;52.008;5.644;2023-02-10T06:31:19;169.77;;;27.55;;
45007;SDS011;30743;52.008;5.644;2023-02-10T06:33:44;116.55;;;25.05;;
45007;SDS011;30743;52.008;5.644;2023-02-10T06:36:10;161.10;;;26.10;;
45007;SDS011;30743;52.008;5.644;2023-02-10T06:38:36;209.00;;;28.98;;
45007;SDS011;30743;52.008;5.644;2023-02-10T06:41:03;173.23;;;26.67;;
45007;SDS011;30743;52.008;5.644;2023-02-10T06:43:29;211.00;;;29.38;;
45007;SDS011;30743;52.008;5.644;2023-02-10T06:45:55;210.73;;;29.95;;
45007;SDS011;30743;52.008;5.644;2023-02-10T06:48:21;241.27;;;29.95;;
45007;SDS011;30743;52.008;5.644;2023-02-10T06:50:46;190.95;;;28.17;;
45007;SDS011;30743;52.008;5.644;2023-02-10T06:53:12;201.02;;;30.20;;
45007;SDS011;30743;52.008;5.644;2023-02-10T06:55:37;210.57;;;29.52;;
45007;SDS011;30743;52.008;5.644;2023-02-10T06:58:03;141.73;;;26.88;;
45007;SDS011;30743;52.008;5.644;2023-02-10T07:00:29;105.35;;;26.23;;
45007;SDS011;30743;52.008;5.644;2023-02-10T07:02:57;142.80;;;28.60;;
45007;SDS011;30743;52.008;5.644;2023-02-10T07:05:23;192.82;;;30.67;;
45007;SDS011;30743;52.008;5.644;2023-02-10T07:07:48;223.32;;;31.55;;
45007;SDS011;30743;52.008;5.644;2023-02-10T07:10:15;192.57;;;31.10;;
45007;SDS011;30743;52.008;5.644;2023-02-10T07:12:42;135.85;;;27.60;;
45007;SDS011;30743;52.008;5.644;2023-02-10T07:15:08;153.88;;;30.50;;
45007;SDS011;30743;52.008;5.644;2023-02-10T07:17:33;155.80;;;28.90;;
45007;SDS011;30743;52.008;5.644;2023-02-10T07:20:00;238.35;;;34.50;;
45007;SDS011;30743;52.008;5.644;2023-02-10T07:22:26;163.13;;;31.00;;
45007;SDS011;30743;52.008;5.644;2023-02-10T07:24:51;231.07;;;33.45;;
45007;SDS011;30743;52.008;5.644;2023-02-10T07:27:17;225.15;;;33.83;;
45007;SDS011;30743;52.008;5.644;2023-02-10T07:29:43;137.93;;;29.27;;
45007;SDS011;30743;52.008;5.644;2023-02-10T07:32:08;145.32;;;30.80;;
45007;SDS011;30743;52.008;5.644;2023-02-10T07:34:34;130.02;;;30.90;;
45007;SDS011;30743;52.008;5.644;2023-02-10T07:37:00;180.48;;;30.60;;
45007;SDS011;30743;52.008;5.644;2023-02-10T07:39:26;140.30;;;30.90;;
45007;SDS011;30743;52.008;5.644;2023-02-10T07:41:52;191.75;;;32.92;;
45007;SDS011;30743;52.008;5.644;2023-02-10T07:44:18;172.60;;;32.47;;
45007;SDS011;30743;52.008;5.644;2023-02-10T07:46:45;102.15;;;30.60;;
45007;SDS011;30743;52.008;5.644;2023-02-10T07:49:11;164.85;;;34.95;;
45007;SDS011;30743;52.008;5.644;2023-02-10T07:51:37;166.32;;;34.38;;
45007;SDS011;30743;52.008;5.644;2023-02-10T07:54:02;137.43;;;30.63;;
45007;SDS011;30743;52.008;5.644;2023-02-10T07:56:28;148.10;;;31.65;;
45007;SDS011;30743;52.008;5.644;2023-02-10T07:58:53;125.18;;;30.23;;
45007;SDS011;30743;52.008;5.644;2023-02-10T08:01:20;60.80;;;26.60;;
45007;SDS011;30743;52.008;5.644;2023-02-10T08:03:45;100.70;;;28.27;;
45007;SDS011;30743;52.008;5.644;2023-02-10T08:06:11;106.50;;;27.52;;
45007;SDS011;30743;52.008;5.644;2023-02-10T08:08:37;64.05;;;26.02;;
45007;SDS011;30743;52.008;5.644;2023-02-10T08:11:03;71.03;;;27.08;;
45007;SDS011;30743;52.008;5.644;2023-02-10T08:13:29;61.95;;;25.17;;
45007;SDS011;30743;52.008;5.644;2023-02-10T08:15:55;50.42;;;25.55;;
45007;SDS011;30743;52.008;5.644;2023-02-10T08:18:21;52.60;;;25.33;;
45007;SDS011;30743;52.008;5.644;2023-02-10T08:20:46;49.47;;;24.08;;
45007;SDS011;30743;52.008;5.644;2023-02-10T08:23:15;53.33;;;23.60;;
45007;SDS011;30743;52.008;5.644;2023-02-10T08:25:42;50.75;;;23.33;;
45007;SDS011;30743;52.008;5.644;2023-02-10T08:28:08;45.08;;;23.83;;
45007;SDS011;30743;52.008;5.644;2023-02-10T08:30:33;42.10;;;22.23;;
45007;SDS011;30743;52.008;5.644;2023-02-10T08:32:59;46.55;;;22.65;;
45007;SDS011;30743;52.008;5.644;2023-02-10T08:35:25;47.75;;;21.85;;
45007;SDS011;30743;52.008;5.644;2023-02-10T08:37:50;42.28;;;22.40;;
45007;SDS011;30743;52.008;5.644;2023-02-10T08:40:16;43.08;;;22.75;;
45007;SDS011;30743;52.008;5.644;2023-02-10T08:42:42;41.53;;;20.98;;
45007;SDS011;30743;52.008;5.644;2023-02-10T08:45:08;41.40;;;20.38;;
45007;SDS011;30743;52.008;5.644;2023-02-10T08:47:34;48.38;;;19.88;;
45007;SDS011;30743;52.008;5.644;2023-02-10T08:49:59;42.80;;;19.55;;
45007;SDS011;30743;52.008;5.644;2023-02-10T08:52:25;38.83;;;21.08;;
45007;SDS011;30743;52.008;5.644;2023-02-10T08:54:51;42.20;;;18.95;;
45007;SDS011;30743;52.008;5.644;2023-02-10T08:57:17;37.42;;;18.88;;
45007;SDS011;30743;52.008;5.644;2023-02-10T08:59:43;52.72;;;19.80;;
45007;SDS011;30743;52.008;5.644;2023-02-10T09:02:10;56.05;;;21.80;;
45007;SDS011;30743;52.008;5.644;2023-02-10T09:04:36;39.72;;;20.05;;
45007;SDS011;30743;52.008;5.644;2023-02-10T09:07:02;41.92;;;19.77;;
45007;SDS011;30743;52.008;5.644;2023-02-10T09:09:27;54.28;;;20.55;;
45007;SDS011;30743;52.008;5.644;2023-02-10T09:11:53;48.63;;;20.33;;
45007;SDS011;30743;52.008;5.644;2023-02-10T09:14:19;46.13;;;20.30;;
45007;SDS011;30743;52.008;5.644;2023-02-10T09:16:45;58.47;;;21.77;;
45007;SDS011;30743;52.008;5.644;2023-02-10T09:19:11;56.20;;;22.05;;
45007;SDS011;30743;52.008;5.644;2023-02-10T09:21:36;59.30;;;23.90;;
45007;SDS011;30743;52.008;5.644;2023-02-10T09:24:02;60.30;;;23.77;;
45007;SDS011;30743;52.008;5.644;2023-02-10T09:26:28;61.17;;;25.40;;
45007;SDS011;30743;52.008;5.644;2023-02-10T09:28:53;55.47;;;24.65;;
45007;SDS011;30743;52.008;5.644;2023-02-10T09:31:19;61.30;;;23.40;;
45007;SDS011;30743;52.008;5.644;2023-02-10T09:33:45;58.08;;;24.42;;
45007;SDS011;30743;52.008;5.644;2023-02-10T09:36:15;51.22;;;24.67;;
45007;SDS011;30743;52.008;5.644;2023-02-10T09:38:42;58.40;;;24.50;;
45007;SDS011;30743;52.008;5.644;2023-02-10T09:41:14;52.47;;;22.80;;
45007;SDS011;30743;52.008;5.644;2023-02-10T09:44:29;49.72;;;23.13;;
45007;SDS011;30743;52.008;5.644;2023-02-10T09:46:41;41.78;;;21.20;;
45007;SDS011;30743;52.008;5.644;2023-02-10T09:52:29;42.45;;;20.73;;
45007;SDS011;30743;52.008;5.644;2023-02-10T09:55:16;41.70;;;20.05;;
45007;SDS011;30743;52.008;5.644;2023-02-10T09:57:57;39.70;;;20.48;;
45007;SDS011;30743;52.008;5.644;2023-02-10T10:00:30;41.25;;;19.20;;
45007;SDS011;30743;52.008;5.644;2023-02-10T10:02:59;35.30;;;19.35;;
45007;SDS011;30743;52.008;5.644;2023-02-10T10:05:50;36.65;;;20.38;;
45007;SDS011;30743;52.008;5.644;2023-02-10T10:08:34;35.72;;;19.33;;
45007;SDS011;30743;52.008;5.644;2023-02-10T10:14:22;35.90;;;18.40;;
45007;SDS011;30743;52.008;5.644;2023-02-10T10:20:11;36.72;;;18.63;;
45007;SDS011;30743;52.008;5.644;2023-02-10T10:25:57;37.33;;;19.00;;
45007;SDS011;30743;52.008;5.644;2023-02-10T10:33:52;34.17;;;17.80;;
45007;SDS011;30743;52.008;5.644;2023-02-10T10:36:34;28.65;;;16.10;;
45007;SDS011;30743;52.008;5.644;2023-02-10T10:41:58;28.80;;;15.88;;
45007;SDS011;30743;52.008;5.644;2023-02-10T10:44:27;29.95;;;17.23;;
45007;SDS011;30743;52.008;5.644;2023-02-10T10:47:00;27.83;;;15.67;;
45007;SDS011;30743;52.008;5.644;2023-02-10T10:49:33;26.48;;;15.13;;
45007;SDS011;30743;52.008;5.644;2023-02-10T10:52:02;22.33;;;13.23;;
45007;SDS011;30743;52.008;5.644;2023-02-10T10:54:42;19.52;;;12.38;;
45007;SDS011;30743;52.008;5.644;2023-02-10T10:57:08;18.88;;;11.95;;
45007;SDS011;30743;52.008;5.644;2023-02-10T10:59:39;20.05;;;12.52;;
45007;SDS011;30743;52.008;5.644;2023-02-10T11:02:26;19.40;;;12.63;;
45007;SDS011;30743;52.008;5.644;2023-02-10T11:05:04;20.33;;;12.45;;
45007;SDS011;30743;52.008;5.644;2023-02-10T11:07:35;17.55;;;11.88;;
45007;SDS011;30743;52.008;5.644;2023-02-10T11:10:02;18.25;;;11.95;;
45007;SDS011;30743;52.008;5.644;2023-02-10T11:12:32;17.92;;;11.88;;
45007;SDS011;30743;52.008;5.644;2023-02-10T11:15:02;17.42;;;10.90;;
45007;SDS011;30743;52.008;5.644;2023-02-10T11:17:50;15.55;;;10.80;;
45007;SDS011;30743;52.008;5.644;2023-02-10T11:20:23;16.58;;;11.27;;
45007;SDS011;30743;52.008;5.644;2023-02-10T11:23:02;16.60;;;11.10;;
45007;SDS011;30743;52.008;5.644;2023-02-10T11:25:40;15.65;;;11.45;;
45007;SDS011;30743;52.008;5.644;2023-02-10T11:28:15;16.77;;;11.98;;
45007;SDS011;30743;52.008;5.644;2023-02-10T11:30:45;17.83;;;11.52;;
45007;SDS011;30743;52.008;5.644;2023-02-10T11:33:18;19.80;;;12.35;;
45007;SDS011;30743;52.008;5.644;2023-02-10T11:35:49;18.15;;;12.18;;
45007;SDS011;30743;52.008;5.644;2023-02-10T11:38:21;19.15;;;12.90;;
45007;SDS011;30743;52.008;5.644;2023-02-10T11:40:51;17.60;;;12.15;;
45007;SDS011;30743;52.008;5.644;2023-02-10T11:45:52;18.33;;;11.73;;
45007;SDS011;30743;52.008;5.644;2023-02-10T11:48:21;17.95;;;13.07;;
45007;SDS011;30743;52.008;5.644;2023-02-10T11:50:47;15.82;;;11.77;;
45007;SDS011;30743;52.008;5.644;2023-02-10T11:53:25;17.65;;;11.90;;
45007;SDS011;30743;52.008;5.644;2023-02-10T12:01:42;17.90;;;11.35;;
45007;SDS011;30743;52.008;5.644;2023-02-10T12:09:54;17.65;;;11.10;;
45007;SDS011;30743;52.008;5.644;2023-02-10T12:15:13;19.88;;;11.93;;
45007;SDS011;30743;52.008;5.644;2023-02-10T12:23:35;22.15;;;11.77;;
45007;SDS011;30743;52.008;5.644;2023-02-10T12:29:00;18.30;;;11.20;;
45007;SDS011;30743;52.008;5.644;2023-02-10T12:37:03;22.35;;;11.15;;
45007;SDS011;30743;52.008;5.644;2023-02-10T12:40:03;19.52;;;11.85;;
45007;SDS011;30743;52.008;5.644;2023-02-10T12:42:56;18.95;;;12.40;;
45007;SDS011;30743;52.008;5.644;2023-02-10T12:54:17;17.90;;;10.38;;
45007;SDS011;30743;52.008;5.644;2023-02-10T12:56:56;18.33;;;10.85;;
45007;SDS011;30743;52.008;5.644;2023-02-10T12:59:26;17.92;;;10.73;;
45007;SDS011;30743;52.008;5.644;2023-02-10T13:02:00;19.67;;;11.90;;
45007;SDS011;30743;52.008;5.644;2023-02-10T13:04:32;19.27;;;11.13;;
45007;SDS011;30743;52.008;5.644;2023-02-10T13:07:05;18.52;;;10.32;;
45007;SDS011;30743;52.008;5.644;2023-02-10T13:09:44;18.10;;;10.13;;
45007;SDS011;30743;52.008;5.644;2023-02-10T13:12:21;22.15;;;10.77;;
45007;SDS011;30743;52.008;5.644;2023-02-10T13:14:50;18.30;;;11.38;;
45007;SDS011;30743;52.008;5.644;2023-02-10T13:17:27;17.95;;;9.73;;
45007;SDS011;30743;52.008;5.644;2023-02-10T13:20:03;19.70;;;9.88;;
45007;SDS011;30743;52.008;5.644;2023-02-10T13:25:29;15.60;;;10.48;;
45007;SDS011;30743;52.008;5.644;2023-02-10T13:28:14;20.48;;;10.68;;
45007;SDS011;30743;52.008;5.644;2023-02-10T13:33:59;21.63;;;11.23;;
45007;SDS011;30743;52.008;5.644;2023-02-10T13:36:29;23.92;;;11.50;;
45007;SDS011;30743;52.008;5.644;2023-02-10T13:41:44;24.35;;;10.95;;
45007;SDS011;30743;52.008;5.644;2023-02-10T13:44:17;22.50;;;11.63;;
45007;SDS011;30743;52.008;5.644;2023-02-10T13:46:55;22.17;;;10.95;;
45007;SDS011;30743;52.008;5.644;2023-02-10T13:49:33;21.30;;;11.10;;
45007;SDS011;30743;52.008;5.644;2023-02-10T13:52:16;24.45;;;11.18;;
45007;SDS011;30743;52.008;5.644;2023-02-10T13:57:36;18.88;;;12.65;;
45007;SDS011;30743;52.008;5.644;2023-02-10T14:02:37;24.23;;;13.80;;
45007;SDS011;30743;52.008;5.644;2023-02-10T14:05:19;22.95;;;13.60;;
45007;SDS011;30743;52.008;5.644;2023-02-10T14:07:53;27.40;;;13.65;;
45007;SDS011;30743;52.008;5.644;2023-02-10T14:12:54;24.55;;;14.80;;
45007;SDS011;30743;52.008;5.644;2023-02-10T14:15:25;28.27;;;16.77;;
45007;SDS011;30743;52.008;5.644;2023-02-10T14:18:38;32.00;;;18.35;;
45007;SDS011;30743;52.008;5.644;2023-02-10T14:21:10;35.38;;;18.65;;
45007;SDS011;30743;52.008;5.644;2023-02-10T14:23:38;39.80;;;21.95;;
45007;SDS011;30743;52.008;5.644;2023-02-10T14:26:13;38.83;;;22.95;;
45007;SDS011;30743;52.008;5.644;2023-02-10T14:29:00;39.03;;;23.65;;
45007;SDS011;30743;52.008;5.644;2023-02-10T14:31:28;40.08;;;23.30;;
45007;SDS011;30743;52.008;5.644;2023-02-10T14:33:55;40.63;;;23.55;;
45007;SDS011;30743;52.008;5.644;2023-02-10T14:36:23;39.90;;;23.55;;
45007;SDS011;30743;52.008;5.644;2023-02-10T14:38:50;39.67;;;24.15;;
45007;SDS011;30743;52.008;5.644;2023-02-10T14:41:18;38.70;;;23.20;;
45007;SDS011;30743;52.008;5.644;2023-02-10T14:43:44;42.97;;;24.38;;
45007;SDS011;30743;52.008;5.644;2023-02-10T14:46:11;39.10;;;24.17;;
45007;SDS011;30743;52.008;5.644;2023-02-10T14:48:45;39.42;;;23.58;;
45007;SDS011;30743;52.008;5.644;2023-02-10T14:51:21;36.72;;;23.88;;
45007;SDS011;30743;52.008;5.644;2023-02-10T14:53:48;50.63;;;26.88;;
45007;SDS011;30743;52.008;5.644;2023-02-10T14:56:25;48.47;;;27.92;;
45007;SDS011;30743;52.008;5.644;2023-02-10T14:58:52;45.78;;;27.23;;
45007;SDS011;30743;52.008;5.644;2023-02-10T15:03:44;46.08;;;27.75;;
45007;SDS011;30743;52.008;5.644;2023-02-10T15:06:13;45.30;;;26.05;;
45007;SDS011;30743;52.008;5.644;2023-02-10T15:11:26;39.53;;;24.23;;
45007;SDS011;30743;52.008;5.644;2023-02-10T15:14:34;39.95;;;23.67;;
45007;SDS011;30743;52.008;5.644;2023-02-10T15:17:01;39.10;;;23.88;;
45007;SDS011;30743;52.008;5.644;2023-02-10T15:19:30;38.55;;;22.38;;
45007;SDS011;30743;52.008;5.644;2023-02-10T15:21:55;39.80;;;21.95;;
45007;SDS011;30743;52.008;5.644;2023-02-10T15:24:31;40.28;;;22.35;;
45007;SDS011;30743;52.008;5.644;2023-02-10T15:27:16;33.35;;;19.25;;
45007;SDS011;30743;52.008;5.644;2023-02-10T15:29:46;32.78;;;20.20;;
45007;SDS011;30743;52.008;5.644;2023-02-10T15:32:16;34.92;;;20.27;;
45007;SDS011;30743;52.008;5.644;2023-02-10T15:34:43;34.60;;;19.83;;
45007;SDS011;30743;52.008;5.644;2023-02-10T15:37:24;33.08;;;19.95;;
45007;SDS011;30743;52.008;5.644;2023-02-10T15:39:58;35.55;;;19.70;;
45007;SDS011;30743;52.008;5.644;2023-02-10T15:42:29;33.13;;;19.35;;
45007;SDS011;30743;52.008;5.644;2023-02-10T15:45:11;38.63;;;20.90;;
45007;SDS011;30743;52.008;5.644;2023-02-10T15:50:09;34.40;;;19.80;;
45007;SDS011;30743;52.008;5.644;2023-02-10T15:52:42;36.80;;;21.20;;
45007;SDS011;30743;52.008;5.644;2023-02-10T15:55:29;35.60;;;19.23;;
45007;SDS011;30743;52.008;5.644;2023-02-10T16:00:32;37.30;;;19.13;;
45007;SDS011;30743;52.008;5.644;2023-02-10T16:02:59;39.15;;;19.90;;
45007;SDS011;30743;52.008;5.644;2023-02-10T16:05:25;41.45;;;20.67;;
45007;SDS011;30743;52.008;5.644;2023-02-10T16:07:52;41.83;;;20.73;;
45007;SDS011;30743;52.008;5.644;2023-02-10T16:10:22;37.90;;;21.25;;
45007;SDS011;30743;52.008;5.644;2023-02-10T16:12:50;37.22;;;21.30;;
45007;SDS011;30743;52.008;5.644;2023-02-10T16:15:17;41.25;;;21.52;;
45007;SDS011;30743;52.008;5.644;2023-02-10T16:17:45;37.10;;;20.55;;